Cedar Park's Hourly Summary for Tuesday, April 18, 2017
Hour Temp
(f)
RH
(%)
Solar Rad.
(MJ/m2)
Rainfall
(in)
Wind
(mph)
4/18/2017 12:00 AM 63 77 0 0 0.67
4/18/2017 1:00 AM 60 88 0 0 0.02
4/18/2017 2:00 AM 59 99 0 0 0
4/18/2017 3:00 AM 57 99 0 0 0
4/18/2017 4:00 AM 57 100 0 0 0
4/18/2017 5:00 AM 57 100 0 0 0.02
4/18/2017 6:00 AM 57 100 0 0 0.02
4/18/2017 7:00 AM 58 100 0 0 0.1
4/18/2017 8:00 AM 59 100 0.03 0 0.2
4/18/2017 9:00 AM 61 100 0.22 0 1.06
4/18/2017 10:00 AM 64 99 0.56 0 1.58
4/18/2017 11:00 AM 67 81 1.58 0 1.51
4/18/2017 12:00 PM 69 78 0.87 0 2.79
4/18/2017 1:00 PM 71 72 1.95 0 2.44
4/18/2017 2:00 PM 73 64 2.41 0 3.02
4/18/2017 3:00 PM 75 57 2.63 0 2.47
4/18/2017 4:00 PM 76 55 2.14 0 3.64
4/18/2017 5:00 PM 76 60 2.13 0 2.91
4/18/2017 6:00 PM 76 58 1.14 0 2.63
4/18/2017 7:00 PM 74 61 0.31 0 2.76
4/18/2017 8:00 PM 71 78 0.12 0 3.3
4/18/2017 9:00 PM 69 79 0 0 3.09
4/18/2017 10:00 PM 68 87 0 0 1.93
4/18/2017 11:00 PM 67 94 0 0 2.31
Data Summary 66 82 16.09 0.00 1.60